Westdorpe, Netherlands
Current Conditions -  °F | °C
As of 3:55 AM on Friday 19 Dec 2014 (Local Time) from EHFS Reporting Station
Overcast Overcast  
Wind Chill: 54°   Ceiling: 1100
Heat Index: 54°   Visibility: 6mi
Dew Point: 50°   Wind: 36mph
Humidity: 88%   Direction: 230°SW
Pressure: 29.83"   Gusts: 52mph
Location:  51.23°N, 3.83°E
Report Text: EHFS 190255Z AUTO 23031G45KT 9999 OVC011/// 12/10 Q1010
Loading
Personal Weather Stations






























Interactive Weather Map New forecast layout! Learn more

10-Day Weather Forecast

Advertisements
Track Severe Weather on mobile